Aérodrome :
LOGIN :

S'inscrire | Disclaimer

   EN    FR    IT 

 










Légende :    VFR   VFR Marginal   IFR   IFR Intensif   IFR Très Intensif
Visi : 
Plafond : 
>= 8 km
>= 3000ft
5 à 8 km
1000 à 3000 ft
1500m à 5 km
500 à 1000 ft
800 à 1500m
200 à 500 ft
< 800m
< 200 ft
Symboles :   Orages  Brouillard  Fortes neiges  Fortes précipitations  Vent > 20 kt
SIGMETs :   Divers  Orages  Givrage  Turbulence  Onde Orograph.  Cendres Volcan.







- Altitude de l'aérodrome : 157 ft
- Code IATA : LIL
- Voir les cartes d'approche


LFQQ - Lille Lesquin

DERNIER METAR :
  • 231200Z AUTO 08015KT CAVOK 12/04 Q1013 NOSIG

METARs EXPIRÉS :
  • 231130Z AUTO 08014KT CAVOK 12/04 Q1013 NOSIG
  • 231100Z AUTO 08016KT 9000 NSC 12/05 Q1013 NOSIG
  • 231030Z AUTO 08016KT 8000 NSC 11/05 Q1012 NOSIG
  • 231000Z AUTO 07013KT 7000 NSC 10/04 Q1012 NOSIG
  • 230930Z AUTO 08014KT 7000 NSC 10/04 Q1012 NOSIG
  • 230900Z AUTO 08013KT 6000 NSC 08/04 Q1012 NOSIG

TAF TAF LFQQ
Valide du 23 à 12h jusqu'au 24 à 18h UTC


231100Z 2312/2418 07013KT CAVOK
BECMG 2401/2402 OVC003
BECMG 2407/2409 OVC008
BECMG 2409/2411 SCT020
ATIS : +33 3 20 16 19 54
Pas de NOTAMs connus pour ce terrain.



MET'MAP, la Météo Aéronautique d'un coup d'oeil ! - Copyright ORBIFLY Décembre 2007 - Disclaimer

ORBIFLY MET'MAP TEAM :

Programmation & Développement : Alexandra Zaïnal
Conception & Développement : Baudouin d'Aumeries
Co-Programmation & Développement : Marc-Olivier Méhu
Soutien technique & logistique : Manuel Goepfert

Contact : metmap@orbifly.com




SOURCES & CREDITS :

   NOAA